Time;durP1;ratioP1;P1;durP2;ratioP2;P2;SDS_P1;SDS_P2;PMS_P1;PMS_P2;Temp;Humidity;BMP_temperature;BMP_pressure;BME280_temperature;BME280_humidity;BME280_pressure;Samples;Min_cycle;Max_cycle;Signal;HPM_P1;HPM_P2
2022/02/04 00:09:10;;;;;;;27.17;11.48;;;;;;;4.91;76.80;99990.20;2097950;84;31118;-71
2022/02/04 00:22:35;;;;;;;18.98;9.48;;;;;;;4.87;76.94;99984.56;2086757;85;28703;-74
2022/02/04 00:25:18;;;;;;;26.42;13.43;;;;;;;4.86;76.97;99987.70;2119948;83;30479;-73
2022/02/04 00:28:26;;;;;;;30.40;18.98;;;;;;;4.87;76.89;99984.56;2111117;83;33826;-75
2022/02/04 00:34:21;;;;;;;26.15;13.28;;;;;;;4.86;76.88;99977.52;2170615;82;27639;-73
2022/02/04 00:37:36;;;;;;;23.95;13.53;;;;;;;4.85;76.89;99978.44;2158926;81;28648;-76
2022/02/04 00:40:34;;;;;;;19.02;9.80;;;;;;;4.84;76.86;99978.02;2158732;82;31923;-74
2022/02/04 00:43:33;;;;;;;25.60;13.30;;;;;;;4.81;76.85;99979.00;2161142;82;33187;-76
2022/02/04 00:46:57;;;;;;;26.57;16.07;;;;;;;4.80;76.92;99982.56;2161276;82;29330;-76
2022/02/04 00:50:14;;;;;;;22.35;10.70;;;;;;;4.81;76.97;99976.78;2121059;82;27900;-71
2022/02/04 00:53:13;;;;;;;24.75;15.13;;;;;;;4.80;76.99;99977.26;2119210;83;28670;-75
2022/02/04 00:56:22;;;;;;;19.27;9.58;;;;;;;4.79;77.08;99974.66;2112408;83;31197;-72
2022/02/04 01:06:30;;;;;;;18.82;9.10;;;;;;;4.79;77.04;99964.05;2084389;85;29382;-75
2022/02/04 01:26:04;;;;;;;18.52;9.85;;;;;;;4.87;77.38;99952.72;2110900;84;28721;-75
2022/02/04 01:29:04;;;;;;;17.98;9.90;;;;;;;4.90;77.45;99950.41;2110698;84;31018;-75
2022/02/04 01:32:08;;;;;;;18.27;9.80;;;;;;;4.91;77.41;99937.11;2111328;84;33026;-74
2022/02/04 01:35:10;;;;;;;21.00;9.60;;;;;;;4.93;77.40;99936.61;2113714;82;29408;-72
2022/02/04 01:38:12;;;;;;;19.87;10.35;;;;;;;4.93;77.31;99931.30;2111434;84;27734;-77
2022/02/04 01:41:14;;;;;;;18.20;8.83;;;;;;;4.95;77.37;99921.95;2111517;84;28628;-78
2022/02/04 01:44:25;;;;;;;20.40;9.58;;;;;;;4.97;77.36;99918.78;2111134;84;31854;-75
2022/02/04 01:47:27;;;;;;;20.95;9.13;;;;;;;4.93;77.40;99905.20;2152710;82;33019;-75
2022/02/04 01:50:31;;;;;;;17.48;9.10;;;;;;;5.01;77.41;99903.17;2076417;82;28818;-77
2022/02/04 01:53:34;;;;;;;17.77;9.65;;;;;;;5.01;77.46;99892.08;2075484;85;27714;-75
2022/02/04 01:56:36;;;;;;;22.00;10.48;;;;;;;5.04;77.46;99892.45;2089644;82;29499;-74
2022/02/04 01:59:37;;;;;;;20.80;10.70;;;;;;;5.04;77.33;99884.94;2075578;84;30998;-74
2022/02/04 02:02:39;;;;;;;15.65;8.45;;;;;;;5.03;77.25;99885.41;2076149;85;32399;-75
2022/02/04 02:05:41;;;;;;;20.77;9.45;;;;;;;5.04;77.31;99883.16;2111262;82;29341;-75
2022/02/04 02:08:43;;;;;;;20.55;9.10;;;;;;;5.05;77.25;99886.20;2122549;82;27539;-76
2022/02/04 02:11:50;;;;;;;20.00;8.68;;;;;;;5.05;77.22;99883.55;2076169;84;28657;-76
2022/02/04 02:15:00;;;;;;;18.15;8.85;;;;;;;5.05;77.06;99869.42;2074766;85;31276;-75
2022/02/04 02:38:59;;;;;;;19.73;7.62;;;;;;;5.07;77.13;99869.76;2154225;82;29292;-75
2022/02/04 02:44:19;;;;;;;20.40;7.87;;;;;;;5.12;77.18;99873.61;2154321;82;29451;-76
2022/02/04 02:47:25;;;;;;;23.35;9.30;;;;;;;5.13;77.19;99873.55;2148152;82;31867;-75
2022/02/04 02:50:37;;;;;;;18.02;8.28;;;;;;;5.15;77.17;99878.35;2079942;82;33844;-75
2022/02/04 03:00:08;;;;;;;15.78;8.38;;;;;;;5.20;77.28;99876.00;2081385;84;28666;-76
2022/02/04 03:03:07;;;;;;;17.23;8.70;;;;;;;5.21;77.31;99879.92;2109618;84;31850;-75
2022/02/04 03:06:08;;;;;;;18.07;9.28;;;;;;;5.22;77.33;99876.34;2112820;82;32985;-75
2022/02/04 03:09:10;;;;;;;15.75;7.97;;;;;;;5.21;77.25;99882.58;2110400;84;29333;-76
2022/02/04 03:12:12;;;;;;;22.73;9.10;;;;;;;5.23;77.31;99879.86;2110741;84;27647;-77
2022/02/04 03:15:14;;;;;;;17.20;9.75;;;;;;;5.22;77.35;99872.81;2111160;84;29341;-75
2022/02/04 03:18:23;;;;;;;14.60;8.75;;;;;;;5.23;77.35;99871.45;2078801;84;31004;-74
2022/02/04 03:21:26;;;;;;;15.40;8.58;;;;;;;5.23;77.31;99874.10;2075384;84;33117;-75
2022/02/04 03:24:26;;;;;;;17.87;8.45;;;;;;;5.23;77.27;99871.45;2074790;84;30331;-75
2022/02/04 03:27:34;;;;;;;20.97;10.15;;;;;;;5.24;77.30;99872.30;2075167;85;27745;-76
2022/02/04 03:30:34;;;;;;;22.37;10.13;;;;;;;5.26;77.30;99873.12;2094114;82;28657;-75
2022/02/04 03:33:35;;;;;;;23.15;9.78;;;;;;;5.24;77.05;99873.63;2086441;84;31078;-75
2022/02/04 03:36:37;;;;;;;21.60;8.90;;;;;;;5.22;77.11;99875.47;2075625;85;34323;-74
2022/02/04 03:39:38;;;;;;;20.77;9.50;;;;;;;5.20;76.90;99871.55;2076170;84;30089;-76
2022/02/04 03:42:40;;;;;;;18.37;9.50;;;;;;;5.18;76.90;99870.73;2075906;85;27664;-75
2022/02/04 03:45:42;;;;;;;18.75;9.50;;;;;;;5.14;76.77;99867.77;2069076;85;28959;-74
2022/02/04 03:48:44;;;;;;;22.95;10.28;;;;;;;5.11;76.78;99867.89;2104115;83;31880;-73
2022/02/04 03:51:45;;;;;;;18.80;8.80;;;;;;;5.11;77.00;99870.08;2104072;83;33824;-73
2022/02/04 03:54:47;;;;;;;18.92;9.35;;;;;;;5.12;77.08;99859.86;2103298;84;29478;-76
2022/02/04 03:57:49;;;;;;;18.02;9.20;;;;;;;5.12;76.96;99865.17;2138115;81;27680;-75
2022/02/04 04:00:51;;;;;;;21.73;10.13;;;;;;;5.12;76.94;99862.52;2123794;82;29365;-75
2022/02/04 04:03:53;;;;;;;21.30;9.45;;;;;;;5.11;76.87;99853.29;2103950;83;31815;-76
2022/02/04 04:06:54;;;;;;;18.42;9.60;;;;;;;5.09;76.71;99844.03;2103706;84;33711;-77
2022/02/04 04:10:05;;;;;;;20.65;9.90;;;;;;;5.06;76.64;99845.94;2103179;84;29373;-74
2022/02/04 04:13:00;;;;;;;18.98;9.73;;;;;;;5.05;76.73;99847.70;2104458;84;27713;-73
2022/02/04 04:16:01;;;;;;;19.07;9.38;;;;;;;5.01;76.65;99842.97;2103986;84;29477;-74
2022/02/04 04:19:03;;;;;;;20.30;9.45;;;;;;;5.01;76.77;99840.79;2103961;84;31797;-74
2022/02/04 04:22:05;;;;;;;21.02;9.25;;;;;;;5.00;76.88;99843.89;2103990;83;33511;-75
2022/02/04 04:25:09;;;;;;;24.02;10.45;;;;;;;5.04;77.00;99847.77;2135164;81;29342;-74
2022/02/04 04:28:10;;;;;;;19.67;9.83;;;;;;;5.02;76.80;99848.69;2149951;81;27664;-75
2022/02/04 04:31:12;;;;;;;24.95;10.00;;;;;;;5.01;76.90;99842.97;2207276;80;29457;-74
2022/02/04 04:34:14;;;;;;;19.95;11.00;;;;;;;5.04;76.66;99841.13;2137690;82;31906;-74
2022/02/04 04:37:16;;;;;;;18.73;9.68;;;;;;;5.02;76.83;99838.55;2134646;83;33948;-75
2022/02/04 04:46:58;;;;;;;18.50;10.53;;;;;;;5.08;76.95;99840.11;2171107;82;28623;-71
2022/02/04 05:26:24;;;;;;;20.37;10.15;;;;;;;4.95;76.89;99837.89;2214625;80;33758;-73
2022/02/04 05:29:17;;;;;;;22.05;9.83;;;;;;;4.93;76.84;99833.09;2170820;80;29372;-73
2022/02/04 05:32:19;;;;;;;21.33;9.83;;;;;;;4.91;76.91;99830.94;2142053;81;27594;-74
2022/02/04 05:35:21;;;;;;;19.62;9.78;;;;;;;4.91;76.99;99827.40;2141720;83;29500;-73
2022/02/04 05:38:23;;;;;;;20.05;8.88;;;;;;;4.89;76.88;99828.80;2178493;80;31067;-74
2022/02/04 05:41:30;;;;;;;19.20;9.00;;;;;;;4.87;76.93;99833.28;2154948;81;33754;-73
2022/02/04 05:44:29;;;;;;;15.38;8.50;;;;;;;4.86;76.80;99836.41;2152422;80;30486;-70
2022/02/04 05:47:31;;;;;;;17.42;8.03;;;;;;;4.84;76.83;99839.57;2201874;80;28309;-74
2022/02/04 06:10:00;;;;;;;14.70;8.35;;;;;;;4.84;77.16;99847.97;1988848;87;31027;-73
2022/02/04 06:13:10;;;;;;;14.63;8.03;;;;;;;4.85;77.23;99856.34;1969476;89;33720;-72
2022/02/04 06:22:30;;;;;;;19.05;9.20;;;;;;;4.89;77.34;99869.05;1973045;88;28701;-75
2022/02/04 06:25:32;;;;;;;18.60;7.50;;;;;;;4.90;77.33;99870.78;1971672;90;31876;-74
2022/02/04 06:28:35;;;;;;;19.52;8.40;;;;;;;4.91;77.34;99869.87;1924699;92;33818;-76
2022/02/04 06:31:37;;;;;;;16.17;8.68;;;;;;;4.92;77.27;99879.13;1967326;88;29321;-78
2022/02/04 06:34:38;;;;;;;21.00;9.55;;;;;;;4.94;77.34;99879.95;2072496;83;27770;-78
2022/02/04 06:37:40;;;;;;;15.28;9.10;;;;;;;4.96;77.35;99878.11;2128417;83;28637;-75
2022/02/04 06:40:42;;;;;;;19.12;11.03;;;;;;;4.98;77.19;99873.59;2118355;84;31303;-74
2022/02/04 06:43:44;;;;;;;20.65;11.25;;;;;;;4.99;77.26;99871.34;2118958;84;33174;-74
2022/02/04 06:46:45;;;;;;;19.95;11.45;;;;;;;5.02;77.25;99875.70;2171166;81;30154;-75
2022/02/04 06:49:47;;;;;;;21.42;11.48;;;;;;;5.04;77.23;99878.30;2197583;81;27691;-73
2022/02/04 06:52:53;;;;;;;20.90;12.35;;;;;;;5.07;77.30;99879.53;2197450;81;29460;-74
2022/02/04 06:55:53;;;;;;;26.23;12.63;;;;;;;5.07;77.33;99872.42;2194480;81;30991;-76
2022/02/04 06:58:54;;;;;;;21.05;13.08;;;;;;;5.11;77.36;99882.50;2197053;81;33697;-77
2022/02/04 07:01:56;;;;;;;27.37;14.18;;;;;;;5.14;77.37;99887.67;2134110;80;29320;-76
2022/02/04 07:04:58;;;;;;;27.82;17.90;;;;;;;5.15;77.38;99886.31;2118483;84;27747;-75
2022/02/04 07:08:09;;;;;;;33.45;19.00;;;;;;;5.18;77.40;99887.98;2192151;81;28627;-75
2022/02/04 07:14:46;;;;;;;30.62;17.98;;;;;;;5.22;77.43;99898.03;2134311;81;33010;-73
2022/02/04 07:17:57;;;;;;;37.70;20.30;;;;;;;5.23;77.44;99899.33;2152241;82;29476;-76
2022/02/04 07:20:43;;;;;;;38.53;21.48;;;;;;;5.26;77.46;99898.34;2138822;82;27672;-75
2022/02/04 07:23:44;;;;;;;34.60;19.95;;;;;;;5.31;77.57;99898.59;2119394;82;28680;-74
2022/02/04 07:26:46;;;;;;;32.03;18.48;;;;;;;5.35;77.62;99891.41;2168498;82;30544;-76
2022/02/04 07:29:51;;;;;;;36.17;19.55;;;;;;;5.40;77.69;99888.58;2122077;82;34086;-77
2022/02/04 07:33:06;;;;;;;31.80;17.98;;;;;;;5.44;77.69;99888.89;2106509;84;29487;-77
2022/02/04 07:42:19;;;;;;;24.07;14.60;;;;;;;5.61;77.89;99882.97;2110520;82;31031;-72
2022/02/04 07:45:22;;;;;;;25.55;15.75;;;;;;;5.67;77.96;99882.75;2129050;83;33001;-73
2022/02/04 07:48:25;;;;;;;27.22;16.35;;;;;;;5.76;78.04;99889.05;2142759;82;29426;-74
2022/02/04 07:51:27;;;;;;;29.27;16.48;;;;;;;5.88;78.16;99885.08;2144870;82;27629;-75
2022/02/04 07:54:29;;;;;;;29.80;16.10;;;;;;;6.00;78.18;99886.45;2143239;83;29472;-74
2022/02/04 07:57:33;;;;;;;27.58;15.48;;;;;;;6.12;78.27;99884.25;2143300;82;31998;-75
2022/02/04 08:00:35;;;;;;;25.90;15.38;;;;;;;6.22;78.23;99886.50;2144297;82;33019;-75
2022/02/04 08:03:44;;;;;;;26.48;16.25;;;;;;;6.30;78.09;99882.22;2143601;82;29318;-73
2022/02/04 08:06:58;;;;;;;25.40;15.03;;;;;;;6.38;78.11;99885.43;2143197;82;27684;-73
2022/02/04 08:10:10;;;;;;;26.65;16.12;;;;;;;6.46;78.03;99889.13;2145587;82;29856;-74
2022/02/04 08:23:08;;;;;;;29.30;16.55;;;;;;;6.82;77.89;99897.05;2159314;80;27773;-72
2022/02/04 08:26:19;;;;;;;24.55;15.30;;;;;;;6.92;77.89;99900.20;2155141;82;28662;-73
2022/02/04 08:32:28;;;;;;;24.20;15.15;;;;;;;7.07;77.72;99887.58;2142901;82;32937;-65
2022/02/04 08:46:48;;;;;;;25.08;14.40;;;;;;;7.53;77.28;99891.86;2157727;82;31730;-67
2022/02/04 09:00:51;;;;;;;22.22;14.93;;;;;;;7.93;76.49;99904.77;2154970;81;32223;-67
2022/02/04 09:04:03;;;;;;;19.37;14.25;;;;;;;7.99;76.44;99900.47;2196824;81;33526;-68
2022/02/04 09:07:01;;;;;;;24.20;16.33;;;;;;;8.09;76.33;99901.41;2197529;80;30148;-70
2022/02/04 09:10:00;;;;;;;28.17;15.38;;;;;;;8.20;76.40;99903.10;2195839;81;27698;-68
2022/02/04 09:19:23;;;;;;;23.87;14.50;;;;;;;8.57;75.97;99897.86;2155384;82;33384;-66
2022/02/04 09:22:42;;;;;;;20.97;13.62;;;;;;;8.68;75.87;99904.91;2155786;82;30158;-67
2022/02/04 09:25:41;;;;;;;18.75;13.70;;;;;;;8.77;75.58;99906.27;2148576;82;27659;-66
2022/02/04 09:28:43;;;;;;;21.73;14.33;;;;;;;8.84;75.45;99902.83;2154842;81;28749;-67
2022/02/04 09:31:45;;;;;;;22.52;15.35;;;;;;;8.90;75.26;99900.72;2207016;80;31044;-67
2022/02/04 09:34:46;;;;;;;21.55;14.15;;;;;;;8.99;75.44;99898.06;2134860;83;33692;-66
2022/02/04 09:37:53;;;;;;;21.77;13.88;;;;;;;9.09;75.17;99891.30;2134952;82;29329;-68
2022/02/04 09:40:55;;;;;;;21.95;13.75;;;;;;;9.18;75.10;99891.80;2206901;80;28202;-67
2022/02/04 09:43:57;;;;;;;18.27;13.00;;;;;;;9.28;74.86;99898.39;2205428;80;28597;-66
2022/02/04 09:46:59;;;;;;;18.07;12.70;;;;;;;9.37;74.71;99899.73;2134724;83;31038;-67
2022/02/04 09:50:10;;;;;;;18.02;12.25;;;;;;;9.49;74.86;99896.42;2154057;80;35119;-66
2022/02/04 10:13:51;;;;;;;19.73;13.68;;;;;;;9.99;73.67;99889.36;2214334;80;27734;-67
2022/02/04 10:17:05;;;;;;;19.17;14.28;;;;;;;10.02;73.50;99893.67;2144282;80;29953;-67
2022/02/04 10:22:49;;;;;;;18.30;13.72;;;;;;;10.08;73.22;99885.32;2171677;82;33351;-66
2022/02/04 10:25:51;;;;;;;17.00;13.20;;;;;;;10.08;72.88;99884.44;2171623;80;28743;-67
2022/02/04 10:28:54;;;;;;;18.17;11.40;;;;;;;10.10;72.85;99883.39;2214854;80;27550;-66
2022/02/04 10:31:56;;;;;;;16.40;11.78;;;;;;;10.09;72.66;99884.38;2217630;80;28800;-68
2022/02/04 10:35:29;;;;;;;14.60;10.30;;;;;;;10.10;72.47;99882.55;2217688;80;31043;-68
2022/02/04 10:38:45;;;;;;;22.07;13.70;;;;;;;10.05;72.26;99881.47;2216782;80;34296;-67
2022/02/04 10:41:50;;;;;;;18.80;11.18;;;;;;;10.06;72.42;99871.16;2217042;80;30203;-66
2022/02/04 10:45:20;;;;;;;14.40;10.53;;;;;;;10.09;72.39;99866.98;2169543;80;27805;-66
2022/02/04 10:48:30;;;;;;;19.95;12.53;;;;;;;10.12;72.14;99860.09;2162136;80;29261;-67
2022/02/04 11:04:21;;;;;;;17.07;10.25;;;;;;;10.05;71.16;99869.42;2159835;81;29550;-66
2022/02/04 11:10:35;;;;;;;16.37;10.65;;;;;;;9.93;70.85;99858.05;2171956;81;33740;-65
2022/02/04 11:34:10;;;;;;;10.25;7.75;;;;;;;10.21;70.64;99833.29;2118512;84;27678;-64
2022/02/04 11:47:53;;;;;;;11.85;8.30;;;;;;;10.48;69.92;99823.36;2059919;86;34143;-65
2022/02/04 11:54:30;;;;;;;10.15;7.35;;;;;;;10.66;69.56;99812.05;2060016;86;30173;-65
2022/02/04 11:57:10;;;;;;;12.45;7.90;;;;;;;10.70;69.51;99809.59;2057557;84;32694;-64
2022/02/04 12:00:33;;;;;;;11.55;6.92;;;;;;;10.72;69.48;99806.35;2055304;86;33028;-66
2022/02/04 12:03:39;;;;;;;10.78;6.45;;;;;;;10.74;69.15;99803.11;1975961;87;29421;-66
2022/02/04 12:06:41;;;;;;;9.53;7.05;;;;;;;10.74;68.98;99803.11;2004192;88;27783;-64
2022/02/04 12:09:48;;;;;;;6.58;5.78;;;;;;;10.75;68.67;99802.63;2026682;87;29583;-66
2022/02/04 12:16:07;;;;;;;10.10;7.00;;;;;;;10.69;68.83;99801.17;2036618;87;33017;-64
2022/02/04 12:19:11;;;;;;;9.78;7.12;;;;;;;10.64;68.36;99801.91;2036156;87;30444;-64
2022/02/04 12:22:13;;;;;;;11.75;7.15;;;;;;;10.59;68.21;99798.65;2009156;87;28375;-64
2022/02/04 12:25:37;;;;;;;9.88;7.05;;;;;;;10.54;67.77;99787.33;2027227;86;29936;-64
2022/02/04 12:29:13;;;;;;;8.80;7.62;;;;;;;10.53;68.20;99793.63;2046368;86;31567;-65
2022/02/04 12:32:10;;;;;;;10.28;7.80;;;;;;;10.45;67.99;99796.75;2079113;83;33884;-64
2022/02/04 12:35:17;;;;;;;11.38;8.18;;;;;;;10.43;67.95;99794.14;2036718;86;30453;-65
2022/02/04 12:38:21;;;;;;;10.35;8.23;;;;;;;10.44;68.00;99791.86;2015803;88;28352;-65
2022/02/04 12:41:27;;;;;;;13.70;8.48;;;;;;;10.40;67.77;99792.12;2071413;85;29717;-65
2022/02/04 12:44:38;;;;;;;13.40;8.68;;;;;;;10.38;67.72;99792.66;2085489;85;30463;-63
2022/02/04 12:47:41;;;;;;;11.55;8.70;;;;;;;10.38;67.91;99781.95;2109792;82;32964;-66
2022/02/04 12:50:45;;;;;;;13.38;7.78;;;;;;;10.32;67.35;99778.69;2133922;82;29355;-65
2022/02/04 12:53:48;;;;;;;12.82;7.20;;;;;;;10.29;67.25;99773.96;2133939;82;27784;-66
2022/02/04 13:01:54;;;;;;;10.53;7.22;;;;;;;10.19;67.00;99781.19;2158045;82;31847;-65
2022/02/04 13:07:29;;;;;;;25.57;10.23;;;;;;;10.18;67.10;99777.24;2156801;82;34270;-65
2022/02/04 13:09:55;;;;;;;24.85;12.00;;;;;;;10.11;66.85;99775.88;2158097;82;28251;-65
2022/02/04 13:13:00;;;;;;;43.83;19.60;;;;;;;10.09;66.70;99771.08;2142876;82;29894;-68
2022/02/04 13:16:05;;;;;;;33.90;14.03;;;;;;;10.06;66.62;99772.59;2134369;82;31190;-67
2022/02/04 13:19:07;;;;;;;25.05;13.35;;;;;;;10.06;67.12;99766.78;2120854;84;32968;-67
2022/02/04 13:22:14;;;;;;;27.55;14.43;;;;;;;10.06;67.02;99765.44;2122751;82;28804;-64
2022/02/04 13:25:19;;;;;;;27.10;16.15;;;;;;;10.06;67.11;99768.58;2099741;83;27743;-65
2022/02/04 13:28:28;;;;;;;24.05;12.25;;;;;;;10.01;66.84;99760.81;2091466;84;28747;-65
2022/02/04 13:31:35;;;;;;;22.13;10.63;;;;;;;9.87;66.35;99763.79;2081812;84;32272;-65
2022/02/04 13:34:36;;;;;;;21.83;11.37;;;;;;;9.79;66.42;99765.16;2112963;82;32974;-66
2022/02/04 13:37:49;;;;;;;46.88;28.23;;;;;;;9.74;66.73;99762.75;2117196;84;29117;-67
2022/02/04 13:41:01;;;;;;;31.62;18.48;;;;;;;9.66;66.60;99756.94;2105867;83;27638;-65
2022/02/04 13:44:39;;;;;;;27.87;16.42;;;;;;;9.53;66.28;99757.61;2063642;83;28220;-66
2022/02/04 13:47:48;;;;;;;22.42;13.75;;;;;;;9.35;65.97;99758.59;2105579;83;31855;-65
2022/02/04 13:51:08;;;;;;;27.05;13.43;;;;;;;9.20;66.34;99763.81;2105632;84;32988;-65
2022/02/04 13:57:56;;;;;;;23.75;14.73;;;;;;;9.05;66.92;99753.94;2098739;83;27735;-64
2022/02/04 14:01:12;;;;;;;26.12;14.90;;;;;;;8.96;66.67;99757.95;2104462;84;29380;-65
2022/02/04 14:04:11;;;;;;;30.00;17.05;;;;;;;8.92;67.01;99755.91;2076378;83;31426;-62
2022/02/04 14:07:19;;;;;;;78.25;47.35;;;;;;;8.90;67.06;99745.78;2105685;84;33052;-65
2022/02/04 14:10:45;;;;;;;86.12;52.27;;;;;;;8.90;67.08;99743.11;2100142;83;29334;-65
2022/02/04 14:13:30;;;;;;;43.08;22.87;;;;;;;8.87;66.77;99743.26;2072164;85;27615;-65
2022/02/04 14:16:34;;;;;;;44.08;24.20;;;;;;;8.88;66.91;99740.09;2085116;83;28737;-66
2022/02/04 14:19:36;;;;;;;46.85;22.65;;;;;;;8.87;66.75;99732.58;2089009;85;32371;-66
2022/02/04 14:22:40;;;;;;;40.28;19.73;;;;;;;8.85;66.53;99730.94;2123459;83;34092;-64
2022/02/04 14:26:11;;;;;;;36.40;18.92;;;;;;;8.86;66.49;99725.95;2115989;82;30710;-66
2022/02/04 14:29:28;;;;;;;26.00;15.38;;;;;;;8.86;66.44;99715.27;2173582;79;28024;-63
2022/02/04 14:32:37;;;;;;;28.42;15.93;;;;;;;8.82;66.20;99707.90;2214323;79;29735;-64
2022/02/04 14:35:48;;;;;;;36.53;18.42;;;;;;;8.82;66.29;99709.23;2161927;80;31903;-65
2022/02/04 14:59:33;;;;;;;28.45;17.17;;;;;;;8.74;66.00;99696.77;2055582;84;29744;-64
2022/02/04 15:02:11;;;;;;;34.58;18.90;;;;;;;8.71;66.22;99695.59;2066407;85;27761;-62
2022/02/04 15:05:14;;;;;;;34.27;18.48;;;;;;;8.69;66.12;99694.31;2052258;86;30072;-65
2022/02/04 15:08:18;;;;;;;28.95;16.40;;;;;;;8.65;66.10;99686.94;2049369;86;32665;-64
2022/02/04 15:11:20;;;;;;;29.32;17.42;;;;;;;8.65;66.02;99684.75;2056655;84;33770;-65
2022/02/04 15:14:22;;;;;;;34.18;18.73;;;;;;;8.59;65.96;99681.94;2065019;85;29320;-63
2022/02/04 15:17:24;;;;;;;40.83;23.22;;;;;;;8.58;66.13;99680.20;2071393;85;28120;-64
2022/02/04 15:20:26;;;;;;;76.25;38.20;;;;;;;8.57;66.25;99688.27;2072606;85;30006;-63
2022/02/04 15:23:28;;;;;;;146.25;69.47;;;;;;;8.54;65.99;99680.41;2071979;85;32089;-65
2022/02/04 15:26:32;;;;;;;207.45;89.50;;;;;;;8.51;66.20;99677.44;2028112;86;29573;-65
2022/02/04 15:29:42;;;;;;;248.28;95.70;;;;;;;8.45;66.19;99678.59;2034231;86;29533;-66
2022/02/04 15:32:40;;;;;;;129.90;53.80;;;;;;;8.43;66.16;99680.47;2058838;85;27907;-64
2022/02/04 15:35:42;;;;;;;92.53;41.20;;;;;;;8.37;65.86;99680.77;2080329;84;29515;-65
2022/02/04 15:38:45;;;;;;;108.65;53.40;;;;;;;8.32;65.80;99676.16;2071254;83;31505;-66
2022/02/04 15:41:51;;;;;;;64.70;31.23;;;;;;;8.24;65.70;99672.55;2050233;84;33770;-63
2022/02/04 15:45:12;;;;;;;41.42;22.65;;;;;;;8.19;65.84;99667.89;2055279;85;30138;-64
2022/02/04 15:51:38;;;;;;;44.05;21.12;;;;;;;8.08;65.74;99657.76;2049930;84;29856;-64
2022/02/04 15:57:48;;;;;;;39.08;21.07;;;;;;;7.99;65.86;99656.41;2068191;84;28976;-68
2022/02/04 16:01:09;;;;;;;45.38;23.70;;;;;;;7.94;65.94;99656.25;2062468;86;29510;-77
2022/02/04 16:04:19;;;;;;;38.05;21.82;;;;;;;7.91;66.08;99647.94;2067378;86;27784;-71
2022/02/04 16:07:06;;;;;;;34.75;20.68;;;;;;;7.87;66.05;99645.02;2066014;86;28678;-71
2022/02/04 16:16:44;;;;;;;76.10;38.73;;;;;;;7.67;66.15;99646.00;2070810;84;30250;-68
2022/02/04 16:19:45;;;;;;;129.35;60.98;;;;;;;7.58;66.15;99644.64;2073337;85;27803;-74
2022/02/04 16:23:00;;;;;;;66.70;35.00;;;;;;;7.50;66.24;99637.01;2089403;82;28698;-71
2022/02/04 16:29:02;;;;;;;45.08;23.07;;;;;;;7.41;66.53;99630.77;2100298;83;32946;-71
2022/02/04 16:32:05;;;;;;;39.90;18.57;;;;;;;7.36;66.62;99616.34;2107014;83;30222;-73
2022/02/04 16:35:08;;;;;;;59.23;26.40;;;;;;;7.32;66.78;99620.56;2082945;85;27903;-69
2022/02/04 16:38:16;;;;;;;81.35;32.25;;;;;;;7.27;66.78;99617.63;2075461;85;28650;-70
2022/02/04 16:41:19;;;;;;;69.82;29.40;;;;;;;7.23;66.82;99621.37;2071708;85;30294;-68
2022/02/04 16:44:18;;;;;;;110.92;43.45;;;;;;;7.18;66.87;99626.07;2103205;84;32990;-69
2022/02/04 16:47:20;;;;;;;130.15;49.33;;;;;;;7.13;66.91;99628.92;2126532;83;28858;-69
2022/02/04 16:50:22;;;;;;;103.58;38.55;;;;;;;7.11;67.05;99628.16;2137015;83;27738;-68
2022/02/04 16:53:27;;;;;;;118.67;43.50;;;;;;;7.09;67.07;99627.81;2105310;84;28129;-69
2022/02/04 16:56:30;;;;;;;65.25;29.42;;;;;;;7.06;67.14;99625.28;2104864;84;31945;-71
2022/02/04 16:59:32;;;;;;;92.45;39.45;;;;;;;7.03;67.05;99626.78;2097625;84;33091;-72
2022/02/04 17:02:35;;;;;;;82.85;34.65;;;;;;;6.99;67.13;99632.24;2097179;83;30132;-73
2022/02/04 17:08:52;;;;;;;61.08;27.32;;;;;;;6.97;67.18;99636.77;2154282;79;28158;-70
2022/02/04 17:12:01;;;;;;;74.77;37.10;;;;;;;6.95;67.20;99630.64;2158096;79;31041;-69
2022/02/04 17:15:05;;;;;;;67.00;34.98;;;;;;;6.93;67.04;99633.84;2171602;79;32992;-71
2022/02/04 17:18:08;;;;;;;56.28;30.37;;;;;;;6.92;67.24;99631.27;2155770;79;28551;-67
2022/02/04 17:21:10;;;;;;;72.80;41.42;;;;;;;6.89;67.02;99626.92;2161074;79;28281;-69
2022/02/04 17:24:15;;;;;;;81.15;47.08;;;;;;;6.89;67.12;99626.06;2161021;79;29310;-74
2022/02/04 17:27:16;;;;;;;;;;;;;;;6.89;67.18;99626.06;2179389;79;31043;-70
2022/02/04 17:30:18;;;;;;;63.83;37.98;;;;;;;6.89;67.09;99628.25;2194798;80;33162;-72
2022/02/04 17:33:20;;;;;;;41.73;25.65;;;;;;;6.87;67.15;99623.45;2198757;79;29386;-71
2022/02/04 17:36:22;;;;;;;30.62;20.48;;;;;;;6.86;67.20;99627.08;2201253;79;27735;-71
2022/02/04 17:39:44;;;;;;;;;;;;;;;;;;;;;
2022/02/04 17:42:40;;;;;;;27.10;19.05;;;;;;;6.81;67.25;99625.09;2171219;80;32069;-69
2022/02/04 17:45:42;;;;;;;20.07;11.57;;;;;;;6.78;67.37;99622.11;2183149;80;33978;-72
2022/02/04 17:48:54;;;;;;;36.35;23.18;;;;;;;6.77;67.42;99620.37;2177997;80;29300;-69
2022/02/04 17:55:06;;;;;;;27.17;16.95;;;;;;;6.74;67.56;99613.85;2151752;80;28840;-73
2022/02/04 18:01:50;;;;;;;28.98;18.12;;;;;;;6.70;67.70;99601.61;2137272;83;33041;-72
2022/02/04 18:08:00;;;;;;;39.88;24.82;;;;;;;6.65;67.76;99593.84;2139237;81;27887;-75
2022/02/04 18:11:03;;;;;;;41.00;24.92;;;;;;;6.63;67.82;99597.48;2140098;82;28689;-80
2022/02/04 18:14:07;;;;;;;31.60;20.55;;;;;;;6.62;67.86;99595.78;2123137;82;28419;-80
2022/02/04 18:17:09;;;;;;;53.87;34.13;;;;;;;6.61;67.87;99589.58;2133787;82;32943;-74
2022/02/04 18:20:11;;;;;;;59.18;35.92;;;;;;;6.59;67.93;99588.77;2139400;82;29974;-74
2022/02/04 18:23:16;;;;;;;65.65;39.67;;;;;;;6.59;67.99;99590.59;2104228;84;28273;-73
2022/02/04 18:26:17;;;;;;;55.45;35.98;;;;;;;6.60;68.03;99594.50;2104960;83;28778;-76
2022/02/04 18:29:21;;;;;;;44.30;28.98;;;;;;;6.58;67.96;99589.70;2099567;82;31925;-71
2022/02/04 18:32:24;;;;;;;55.55;37.30;;;;;;;6.58;68.05;99595.03;2157175;80;33033;-71
2022/02/04 18:35:26;;;;;;;59.18;38.28;;;;;;;6.59;68.13;99595.91;2158968;82;28991;-70
2022/02/04 18:38:44;;;;;;;50.70;32.25;;;;;;;6.59;68.17;99591.92;2169873;80;27746;-72
2022/02/04 18:45:10;;;;;;;69.62;40.52;;;;;;;6.60;68.12;99589.17;2078046;85;31112;-72
2022/02/04 18:48:14;;;;;;;95.32;50.40;;;;;;;6.60;68.14;99589.17;2088422;83;33000;-69
2022/02/04 18:51:27;;;;;;;75.28;39.92;;;;;;;6.60;68.12;99587.84;2088664;85;29328;-70
2022/02/04 18:57:25;;;;;;;64.85;37.78;;;;;;;6.62;68.19;99579.81;2040264;86;29413;-72
2022/02/04 19:00:27;;;;;;;56.90;34.13;;;;;;;6.62;68.15;99583.80;2035194;86;31830;-71
2022/02/04 19:03:38;;;;;;;62.23;38.98;;;;;;;6.62;68.07;99575.82;2035839;86;32882;-73
2022/02/04 19:06:35;;;;;;;57.58;35.98;;;;;;;6.60;68.10;99573.20;2041336;86;30123;-71
2022/02/04 19:09:38;;;;;;;87.80;53.38;;;;;;;6.60;68.14;99572.36;2035067;86;27813;-67
2022/02/04 19:12:47;;;;;;;64.45;42.03;;;;;;;6.59;68.16;99573.28;2035184;86;29508;-69
2022/02/04 19:22:25;;;;;;;75.78;38.17;;;;;;;6.54;68.22;99557.50;2053139;84;29504;-71
2022/02/04 19:25:12;;;;;;;45.70;23.50;;;;;;;6.53;68.20;99555.32;2053537;85;27733;-71
2022/02/04 19:28:13;;;;;;;100.35;54.85;;;;;;;6.52;68.23;99553.59;2038165;85;30212;-70
2022/02/04 19:31:17;;;;;;;89.45;50.60;;;;;;;6.49;68.25;99559.05;2020832;87;31240;-71
2022/02/04 19:34:20;;;;;;;77.70;47.23;;;;;;;6.50;68.35;99563.44;2070718;80;33250;-71
2022/02/04 19:37:23;;;;;;;80.85;45.90;;;;;;;6.50;68.39;99555.45;2163898;80;30104;-70
2022/02/04 19:40:28;;;;;;;69.95;42.65;;;;;;;6.51;68.45;99551.02;2163953;80;27750;-75
2022/02/04 19:43:34;;;;;;;48.15;29.20;;;;;;;6.51;68.47;99551.02;2163623;80;28868;-77
2022/02/04 19:46:40;;;;;;;56.85;35.60;;;;;;;6.43;68.46;99525.20;2032216;86;31267;-72
2022/02/04 19:49:50;;;;;;;52.25;30.75;;;;;;;6.47;68.46;99532.12;2055984;84;32986;-73
2022/02/04 19:53:01;;;;;;;45.63;27.00;;;;;;;6.45;68.47;99528.22;2050695;86;29297;-71
2022/02/04 20:06:43;;;;;;;56.70;33.75;;;;;;;6.43;68.55;99530.52;2046613;85;27881;-68
2022/02/04 20:25:44;;;;;;;34.73;18.62;;;;;;;6.30;68.86;99509.80;1979250;88;29386;-78
2022/02/04 20:28:51;;;;;;;54.67;25.30;;;;;;;6.31;68.94;99511.98;2006759;86;27993;-76
2022/02/04 20:31:54;;;;;;;54.48;26.90;;;;;;;6.32;68.85;99513.27;1899331;91;27880;-77